KRHV 101847Z VRB04KT 3SM BR SCT007 BKN018 OVC060 11/08 A3023